Time;durP1;ratioP1;P1;durP2;ratioP2;P2;SDS_P1;SDS_P2;PMS_P1;PMS_P2;Temp;Humidity;BMP_temperature;BMP_pressure;BME280_temperature;BME280_humidity;BME280_pressure;Samples;Min_cycle;Max_cycle;Signal;HPM_P1;HPM_P2
2021/06/08 00:01:10;;;;;;;8.32;7.43;;;;;;;;;;1901512;75;20093;-58
2021/06/08 00:03:36;;;;;;;8.32;6.75;;;;;;;;;;1901309;75;20077;-57
2021/06/08 00:06:01;;;;;;;8.63;7.38;;;;;;;;;;1901792;67;20089;-58
2021/06/08 00:08:26;;;;;;;8.10;7.32;;;;;;;;;;1901142;75;20081;-58
2021/06/08 00:10:52;;;;;;;7.82;7.13;;;;;;;;;;1901700;75;20091;-56
2021/06/08 00:13:17;;;;;;;6.97;6.28;;;;;;;;;;1901522;75;20155;-58
2021/06/08 00:15:42;;;;;;;7.90;6.68;;;;;;;;;;1901996;67;20089;-58
2021/06/08 00:18:08;;;;;;;7.22;6.53;;;;;;;;;;1901150;75;20104;-58
2021/06/08 00:20:33;;;;;;;7.93;7.15;;;;;;;;;;1901588;75;20081;-58
2021/06/08 00:22:58;;;;;;;7.47;6.68;;;;;;;;;;1901271;75;20089;-58
2021/06/08 00:25:24;;;;;;;7.82;7.03;;;;;;;;;;1904751;67;20077;-58
2021/06/08 00:27:51;;;;;;;7.63;6.82;;;;;;;;;;1901672;67;20555;-58
2021/06/08 00:30:17;;;;;;;8.00;7.20;;;;;;;;;;1904082;67;20092;-58
2021/06/08 00:32:42;;;;;;;7.93;7.13;;;;;;;;;;1901510;75;20085;-58
2021/06/08 00:35:08;;;;;;;7.85;7.05;;;;;;;;;;1901689;75;20567;-58
2021/06/08 00:37:33;;;;;;;7.13;6.38;;;;;;;;;;1901528;67;20359;-57
2021/06/08 00:39:58;;;;;;;7.65;6.75;;;;;;;;;;1901544;75;20381;-58
2021/06/08 00:42:28;;;;;;;7.45;6.40;;;;;;;;;;1901421;75;20085;-58
2021/06/08 00:44:54;;;;;;;7.17;6.43;;;;;;;;;;1901430;75;20081;-58
2021/06/08 00:47:19;;;;;;;7.05;6.35;;;;;;;;;;1901178;75;20085;-58
2021/06/08 00:49:45;;;;;;;8.88;7.13;;;;;;;;;;1902988;67;20085;-58
2021/06/08 00:52:10;;;;;;;6.78;6.07;;;;;;;;;;1903624;75;20138;-58
2021/06/08 00:54:35;;;;;;;7.63;6.30;;;;;;;;;;1902048;75;20126;-56
2021/06/08 00:57:01;;;;;;;7.30;6.05;;;;;;;;;;1901686;75;20093;-56
2021/06/08 00:59:26;;;;;;;7.70;6.53;;;;;;;;;;1902878;67;20089;-58
2021/06/08 01:04:20;;;;;;;6.75;6.07;;;;;;;;;;1902225;67;20097;-52
2021/06/08 01:06:49;;;;;;;7.00;6.30;;;;;;;;;;1902274;75;20095;-53
2021/06/08 01:09:14;;;;;;;6.97;6.28;;;;;;;;;;1899431;75;20081;-52
2021/06/08 01:11:40;;;;;;;8.05;7.25;;;;;;;;;;1901319;67;20133;-52
2021/06/08 01:14:05;;;;;;;7.88;6.95;;;;;;;;;;1902584;75;20108;-50
2021/06/08 01:16:31;;;;;;;7.28;6.28;;;;;;;;;;1902347;75;20112;-52
2021/06/08 01:18:56;;;;;;;7.68;6.53;;;;;;;;;;1901224;75;20085;-55
2021/06/08 01:21:21;;;;;;;7.30;6.45;;;;;;;;;;1903676;67;20085;-51
2021/06/08 01:23:47;;;;;;;7.00;6.30;;;;;;;;;;1899430;75;20526;-52
2021/06/08 01:26:12;;;;;;;8.57;6.57;;;;;;;;;;1902675;75;20151;-52
2021/06/08 01:28:39;;;;;;;7.60;6.90;;;;;;;;;;1896695;75;20092;-51
2021/06/08 01:31:10;;;;;;;7.07;6.38;;;;;;;;;;1897405;75;20079;-52
2021/06/08 01:33:43;;;;;;;8.80;6.65;;;;;;;;;;1901572;67;20096;-52
2021/06/08 01:36:09;;;;;;;8.32;6.68;;;;;;;;;;1897183;75;20081;-51
2021/06/08 01:38:38;;;;;;;7.78;6.97;;;;;;;;;;1901255;75;20096;-53
2021/06/08 01:41:04;;;;;;;8.13;6.95;;;;;;;;;;1902335;75;20088;-51
2021/06/08 01:43:29;;;;;;;7.25;6.55;;;;;;;;;;1900572;67;20187;-52
2021/06/08 01:45:55;;;;;;;7.22;6.53;;;;;;;;;;1904497;75;20760;-52
2021/06/08 01:48:20;;;;;;;7.38;6.57;;;;;;;;;;1898397;67;20096;-54
2021/06/08 01:50:48;;;;;;;6.70;6.00;;;;;;;;;;1902599;75;20129;-53
2021/06/08 01:53:24;;;;;;;7.53;6.82;;;;;;;;;;1894383;75;20624;-49
2021/06/08 01:55:50;;;;;;;7.35;6.57;;;;;;;;;;1900211;67;20642;-51
2021/06/08 01:58:25;;;;;;;6.93;5.57;;;;;;;;;;1898380;75;20081;-52
2021/06/08 02:00:52;;;;;;;7.13;6.43;;;;;;;;;;1897812;75;20445;-53
2021/06/08 02:03:33;;;;;;;7.28;6.57;;;;;;;;;;1899299;75;20104;-54
2021/06/08 02:06:20;;;;;;;6.85;6.15;;;;;;;;;;1902154;67;20085;-52
2021/06/08 02:08:58;;;;;;;8.48;7.00;;;;;;;;;;1896682;75;20077;-53
2021/06/08 02:11:30;;;;;;;6.85;6.15;;;;;;;;;;1897174;75;20138;-52
2021/06/08 02:14:01;;;;;;;7.30;6.60;;;;;;;;;;1896730;75;20089;-52
2021/06/08 02:16:42;;;;;;;6.95;6.25;;;;;;;;;;1903223;67;20089;-51
2021/06/08 02:19:09;;;;;;;6.93;6.22;;;;;;;;;;1899174;75;20139;-53
2021/06/08 02:21:36;;;;;;;7.35;6.65;;;;;;;;;;1906392;67;20081;-51
2021/06/08 02:24:02;;;;;;;6.38;5.78;;;;;;;;;;1895527;75;20085;-53
2021/06/08 02:26:28;;;;;;;7.05;6.35;;;;;;;;;;1899480;75;20186;-54
2021/06/08 02:28:54;;;;;;;8.02;6.45;;;;;;;;;;1900461;67;20452;-60
2021/06/08 02:31:19;;;;;;;7.38;6.68;;;;;;;;;;1897821;75;20157;-52
2021/06/08 02:33:48;;;;;;;7.00;6.30;;;;;;;;;;1897560;75;20152;-52
2021/06/08 02:36:13;;;;;;;7.60;6.60;;;;;;;;;;1899202;75;20101;-55
2021/06/08 02:38:39;;;;;;;7.13;6.43;;;;;;;;;;1902553;67;20128;-53
2021/06/08 02:41:04;;;;;;;7.32;6.63;;;;;;;;;;1897260;75;20147;-49
2021/06/08 02:43:30;;;;;;;7.95;6.18;;;;;;;;;;1897043;75;20100;-52
2021/06/08 02:45:55;;;;;;;6.97;6.28;;;;;;;;;;1898446;75;20097;-55
2021/06/08 02:48:21;;;;;;;7.20;6.38;;;;;;;;;;1895989;75;20093;-50
2021/06/08 02:50:46;;;;;;;6.75;6.10;;;;;;;;;;1897441;67;20479;-54
2021/06/08 02:53:13;;;;;;;6.60;6.00;;;;;;;;;;1899599;75;20096;-54
2021/06/08 02:55:38;;;;;;;7.50;6.75;;;;;;;;;;1898867;75;20128;-55
2021/06/08 02:58:04;;;;;;;7.93;6.38;;;;;;;;;;1899493;75;20141;-51
2021/06/08 03:00:29;;;;;;;6.32;5.72;;;;;;;;;;1896063;67;20082;-53
2021/06/08 03:02:56;;;;;;;7.20;6.50;;;;;;;;;;1901441;75;20081;-51
2021/06/08 03:05:29;;;;;;;7.25;6.55;;;;;;;;;;1902483;75;20509;-50
2021/06/08 03:07:59;;;;;;;6.47;5.85;;;;;;;;;;1898338;75;20080;-54
2021/06/08 03:10:26;;;;;;;7.57;6.70;;;;;;;;;;1901611;75;20085;-54
2021/06/08 03:12:56;;;;;;;7.72;6.55;;;;;;;;;;1897506;67;20085;-53
2021/06/08 03:15:27;;;;;;;6.57;5.88;;;;;;;;;;1900261;75;20081;-51
2021/06/08 03:17:53;;;;;;;6.97;6.13;;;;;;;;;;1899011;75;20093;-54
2021/06/08 03:20:30;;;;;;;6.60;6.00;;;;;;;;;;1898928;75;20486;-53
2021/06/08 03:22:56;;;;;;;6.53;5.72;;;;;;;;;;1898407;67;20081;-51
2021/06/08 03:25:21;;;;;;;7.57;6.40;;;;;;;;;;1898580;75;20878;-53
2021/06/08 03:27:47;;;;;;;7.13;6.25;;;;;;;;;;1898077;75;20093;-53
2021/06/08 03:30:12;;;;;;;7.00;6.30;;;;;;;;;;1899120;75;20136;-52
2021/06/08 03:32:38;;;;;;;6.38;5.68;;;;;;;;;;1896524;75;20081;-53
2021/06/08 03:35:07;;;;;;;7.30;6.60;;;;;;;;;;1895689;67;20097;-52
2021/06/08 03:37:33;;;;;;;7.95;6.05;;;;;;;;;;1898981;75;20132;-54
2021/06/08 03:39:58;;;;;;;7.07;6.30;;;;;;;;;;1899152;67;20084;-50
2021/06/08 03:42:24;;;;;;;7.40;6.70;;;;;;;;;;1899085;75;20081;-50
2021/06/08 03:44:49;;;;;;;6.68;5.97;;;;;;;;;;1898196;67;20081;-53
2021/06/08 03:47:17;;;;;;;6.88;6.18;;;;;;;;;;1898048;75;20086;-53
2021/06/08 03:49:43;;;;;;;7.53;6.22;;;;;;;;;;1897228;67;20144;-57
2021/06/08 03:52:08;;;;;;;6.35;5.72;;;;;;;;;;1892486;75;20086;-51
2021/06/08 03:54:33;;;;;;;6.85;6.05;;;;;;;;;;1902277;75;20108;-52
2021/06/08 03:56:59;;;;;;;7.15;5.70;;;;;;;;;;1895182;67;20258;-54
2021/06/08 03:59:26;;;;;;;6.97;6.20;;;;;;;;;;1901043;75;20077;-52
2021/06/08 04:01:52;;;;;;;6.75;6.05;;;;;;;;;;1899597;67;20104;-55
2021/06/08 04:04:17;;;;;;;7.07;6.38;;;;;;;;;;1902300;75;20077;-52
2021/06/08 04:06:43;;;;;;;6.75;5.57;;;;;;;;;;1901221;67;20093;-52
2021/06/08 04:09:09;;;;;;;6.50;5.90;;;;;;;;;;1895284;75;20543;-52
2021/06/08 04:11:35;;;;;;;6.95;6.25;;;;;;;;;;1901879;75;20131;-52
2021/06/08 04:14:01;;;;;;;6.68;5.97;;;;;;;;;;1902082;75;20088;-53
2021/06/08 04:16:26;;;;;;;6.97;6.28;;;;;;;;;;1896345;75;20081;-52
2021/06/08 04:18:51;;;;;;;6.50;5.90;;;;;;;;;;1901748;67;20163;-55
2021/06/08 04:21:21;;;;;;;6.55;5.82;;;;;;;;;;1896396;75;20089;-51
2021/06/08 04:24:00;;;;;;;6.88;6.28;;;;;;;;;;1897856;75;20088;-55
2021/06/08 04:26:25;;;;;;;6.50;5.57;;;;;;;;;;1901718;75;20085;-53
2021/06/08 04:28:51;;;;;;;6.70;6.00;;;;;;;;;;1896825;67;20093;-53
2021/06/08 04:31:17;;;;;;;6.70;6.00;;;;;;;;;;1903996;67;20510;-53
2021/06/08 04:33:45;;;;;;;7.03;6.32;;;;;;;;;;1904043;75;20081;-53
2021/06/08 04:36:12;;;;;;;6.53;5.82;;;;;;;;;;1902301;75;20151;-53
2021/06/08 04:38:38;;;;;;;6.50;5.85;;;;;;;;;;1898238;75;20541;-54
2021/06/08 04:41:03;;;;;;;6.93;6.10;;;;;;;;;;1892605;68;20098;-49
2021/06/08 04:43:29;;;;;;;6.47;5.82;;;;;;;;;;1898942;75;20564;-56
2021/06/08 04:45:54;;;;;;;6.68;5.60;;;;;;;;;;1898288;75;20097;-55
2021/06/08 04:48:22;;;;;;;6.55;5.95;;;;;;;;;;1898392;75;20546;-53
2021/06/08 04:50:51;;;;;;;6.97;6.28;;;;;;;;;;1899596;67;20082;-53
2021/06/08 04:53:17;;;;;;;7.28;6.13;;;;;;;;;;1898311;75;20137;-56
2021/06/08 04:55:42;;;;;;;8.25;5.75;;;;;;;;;;1898821;75;20149;-55
2021/06/08 04:58:08;;;;;;;6.25;5.65;;;;;;;;;;1898292;75;20081;-55
2021/06/08 05:01:10;;;;;;;7.50;6.72;;;;;;;;;;1898825;75;20104;-57
2021/06/08 05:03:43;;;;;;;6.53;5.93;;;;;;;;;;1893750;75;20082;-52
2021/06/08 05:06:11;;;;;;;6.82;6.13;;;;;;;;;;1896039;67;20097;-50
2021/06/08 05:08:42;;;;;;;6.50;5.80;;;;;;;;;;1895984;75;20167;-49
2021/06/08 05:11:14;;;;;;;6.82;5.72;;;;;;;;;;1894278;68;20100;-53
2021/06/08 05:13:42;;;;;;;6.70;6.00;;;;;;;;;;1894548;68;20134;-54
2021/06/08 05:16:07;;;;;;;5.57;5.07;;;;;;;;;;1892501;75;20080;-57
2021/06/08 05:18:33;;;;;;;6.55;5.85;;;;;;;;;;1901470;75;20137;-54
2021/06/08 05:20:58;;;;;;;7.47;5.68;;;;;;;;;;1899251;75;20096;-51
2021/06/08 05:23:24;;;;;;;5.95;5.43;;;;;;;;;;1899121;67;20105;-54
2021/06/08 05:25:51;;;;;;;6.22;5.63;;;;;;;;;;1897589;75;20389;-58
2021/06/08 05:28:16;;;;;;;6.57;5.95;;;;;;;;;;1902506;75;20081;-54
2021/06/08 05:30:41;;;;;;;6.07;5.18;;;;;;;;;;1896665;75;20085;-56
2021/06/08 05:33:10;;;;;;;6.30;5.70;;;;;;;;;;1899393;75;20139;-53
2021/06/08 05:35:35;;;;;;;7.22;5.47;;;;;;;;;;1895457;67;20188;-51
2021/06/08 05:38:04;;;;;;;7.25;5.60;;;;;;;;;;1896966;75;20089;-53
2021/06/08 05:40:30;;;;;;;7.13;6.00;;;;;;;;;;1901673;75;20297;-53
2021/06/08 05:42:55;;;;;;;10.70;6.40;;;;;;;;;;1894281;75;20557;-53
2021/06/08 05:45:20;;;;;;;14.77;8.80;;;;;;;;;;1904140;67;20091;-53
2021/06/08 05:47:46;;;;;;;15.23;9.77;;;;;;;;;;1902450;75;20386;-51
2021/06/08 05:50:11;;;;;;;12.13;9.43;;;;;;;;;;1898670;75;20089;-49
2021/06/08 05:52:37;;;;;;;12.45;8.20;;;;;;;;;;1896331;75;20092;-51
2021/06/08 05:55:03;;;;;;;13.45;8.20;;;;;;;;;;1902492;75;20081;-49
2021/06/08 05:57:29;;;;;;;9.75;8.45;;;;;;;;;;1902479;67;20089;-49
2021/06/08 05:59:54;;;;;;;12.80;7.25;;;;;;;;;;1897219;75;20088;-48
2021/06/08 06:02:20;;;;;;;10.80;7.90;;;;;;;;;;1901876;75;20084;-53
2021/06/08 06:04:45;;;;;;;8.68;7.72;;;;;;;;;;1897010;75;20141;-51
2021/06/08 06:07:11;;;;;;;9.40;7.45;;;;;;;;;;1901476;67;20077;-53
2021/06/08 06:09:36;;;;;;;9.57;7.03;;;;;;;;;;1902364;75;20085;-50
2021/06/08 06:12:02;;;;;;;10.18;8.10;;;;;;;;;;1899432;75;20081;-48
2021/06/08 06:14:28;;;;;;;9.15;7.70;;;;;;;;;;1896420;75;20073;-51
2021/06/08 06:16:53;;;;;;;10.02;7.93;;;;;;;;;;1898902;75;20088;-49
2021/06/08 06:19:25;;;;;;;9.45;7.70;;;;;;;;;;1904822;67;20144;-50
2021/06/08 06:21:52;;;;;;;8.07;7.15;;;;;;;;;;1897458;67;20084;-51
2021/06/08 06:24:17;;;;;;;10.68;7.88;;;;;;;;;;1902260;75;20249;-50
2021/06/08 06:26:43;;;;;;;9.70;7.30;;;;;;;;;;1899074;75;20088;-48
2021/06/08 06:29:09;;;;;;;9.27;7.65;;;;;;;;;;1903287;67;20096;-52
2021/06/08 06:31:35;;;;;;;9.45;7.55;;;;;;;;;;1897937;75;20142;-48
2021/06/08 06:34:01;;;;;;;8.88;7.47;;;;;;;;;;1899410;75;20124;-52
2021/06/08 06:36:27;;;;;;;9.20;7.53;;;;;;;;;;1903248;67;20085;-51
2021/06/08 06:38:52;;;;;;;10.00;7.30;;;;;;;;;;1896308;75;20088;-49
2021/06/08 06:41:18;;;;;;;10.93;7.60;;;;;;;;;;1899996;67;20139;-49
2021/06/08 06:43:49;;;;;;;8.60;7.35;;;;;;;;;;1896729;75;20093;-52
2021/06/08 06:46:15;;;;;;;9.95;8.50;;;;;;;;;;1898704;75;20086;-48
2021/06/08 06:48:42;;;;;;;9.55;8.35;;;;;;;;;;1893642;75;20482;-52
2021/06/08 06:51:07;;;;;;;11.60;10.10;;;;;;;;;;1899547;67;20146;-50
2021/06/08 06:53:33;;;;;;;11.88;10.55;;;;;;;;;;1899970;75;20291;-51
2021/06/08 06:55:58;;;;;;;13.05;11.85;;;;;;;;;;1889329;75;20085;-53
2021/06/08 06:58:24;;;;;;;13.65;12.25;;;;;;;;;;1895640;75;20112;-52
2021/06/08 07:00:49;;;;;;;14.20;12.43;;;;;;;;;;1900764;75;20168;-50
2021/06/08 07:03:15;;;;;;;14.63;13.10;;;;;;;;;;1901879;67;20506;-51
2021/06/08 07:05:42;;;;;;;14.98;13.35;;;;;;;;;;1892083;75;20538;-52
2021/06/08 07:08:08;;;;;;;14.18;12.73;;;;;;;;;;1898604;75;20160;-51
2021/06/08 07:10:33;;;;;;;13.70;12.30;;;;;;;;;;1901913;75;20540;-52
2021/06/08 07:13:04;;;;;;;14.75;13.32;;;;;;;;;;1902155;75;20283;-50
2021/06/08 07:15:29;;;;;;;14.98;13.25;;;;;;;;;;1897614;67;20092;-51
2021/06/08 07:17:55;;;;;;;14.32;12.85;;;;;;;;;;1898232;75;20485;-50
2021/06/08 07:20:20;;;;;;;14.13;12.70;;;;;;;;;;1902180;75;20133;-51
2021/06/08 07:22:46;;;;;;;14.20;12.38;;;;;;;;;;1897734;75;20513;-51
2021/06/08 07:25:12;;;;;;;14.32;12.82;;;;;;;;;;1891333;67;20591;-49
2021/06/08 07:27:37;;;;;;;15.65;13.25;;;;;;;;;;1895147;75;20081;-51
2021/06/08 07:30:05;;;;;;;14.45;12.18;;;;;;;;;;1901207;75;20147;-51
2021/06/08 07:32:49;;;;;;;13.63;12.23;;;;;;;;;;1902186;75;20168;-51
2021/06/08 07:35:24;;;;;;;13.10;11.82;;;;;;;;;;1902918;67;20085;-49
2021/06/08 07:37:50;;;;;;;13.55;11.90;;;;;;;;;;1898789;75;20136;-50
2021/06/08 07:40:26;;;;;;;13.90;12.40;;;;;;;;;;1901597;75;20092;-53
2021/06/08 07:42:53;;;;;;;13.30;11.90;;;;;;;;;;1903791;67;20138;-51
2021/06/08 07:45:20;;;;;;;12.23;11.10;;;;;;;;;;1899613;67;20092;-49
2021/06/08 07:47:48;;;;;;;13.90;12.05;;;;;;;;;;1903279;67;20478;-51
2021/06/08 07:50:14;;;;;;;12.15;11.05;;;;;;;;;;1899043;75;20844;-50
2021/06/08 07:52:39;;;;;;;11.52;10.27;;;;;;;;;;1896066;75;20152;-51
2021/06/08 07:55:05;;;;;;;13.05;11.60;;;;;;;;;;1894346;75;20108;-52
2021/06/08 07:57:31;;;;;;;12.40;11.10;;;;;;;;;;1899859;67;20077;-51
2021/06/08 07:59:56;;;;;;;11.57;10.48;;;;;;;;;;1900668;75;20148;-56
2021/06/08 08:02:22;;;;;;;12.93;11.50;;;;;;;;;;1902587;75;20091;-47
2021/06/08 08:04:52;;;;;;;12.20;11.00;;;;;;;;;;1900167;75;20429;-47
2021/06/08 08:07:21;;;;;;;13.23;11.80;;;;;;;;;;1897449;75;20084;-53
2021/06/08 08:09:47;;;;;;;12.10;10.68;;;;;;;;;;1903681;67;20097;-56
2021/06/08 08:12:13;;;;;;;11.80;10.60;;;;;;;;;;1902507;67;20272;-48
2021/06/08 08:14:38;;;;;;;11.68;10.55;;;;;;;;;;1899721;67;20137;-50
2021/06/08 08:17:04;;;;;;;12.40;11.20;;;;;;;;;;1895073;67;20105;-49
2021/06/08 08:19:30;;;;;;;11.48;10.38;;;;;;;;;;1899222;67;20457;-49
2021/06/08 08:21:55;;;;;;;12.68;11.38;;;;;;;;;;1897760;75;20089;-56
2021/06/08 08:24:21;;;;;;;12.68;11.48;;;;;;;;;;1901854;75;20355;-48
2021/06/08 08:26:46;;;;;;;13.20;11.93;;;;;;;;;;1901490;75;20104;-49
2021/06/08 08:29:12;;;;;;;12.18;10.85;;;;;;;;;;1902601;75;20088;-48
2021/06/08 08:31:37;;;;;;;12.57;11.38;;;;;;;;;;1902715;67;20136;-56
2021/06/08 08:34:03;;;;;;;11.95;10.75;;;;;;;;;;1902480;75;20143;-51
2021/06/08 08:36:30;;;;;;;12.70;11.40;;;;;;;;;;1895237;75;20090;-48
2021/06/08 08:38:55;;;;;;;12.18;10.88;;;;;;;;;;1895267;75;20082;-50
2021/06/08 08:41:21;;;;;;;12.18;10.98;;;;;;;;;;1887843;67;20153;-48
2021/06/08 08:43:49;;;;;;;12.13;10.80;;;;;;;;;;1892362;75;20082;-51
2021/06/08 08:46:15;;;;;;;11.45;10.35;;;;;;;;;;1895881;75;20089;-48
2021/06/08 08:48:42;;;;;;;12.13;11.02;;;;;;;;;;1895699;75;20096;-49
2021/06/08 08:51:11;;;;;;;11.85;10.65;;;;;;;;;;1890307;68;20455;-49
2021/06/08 08:53:36;;;;;;;11.88;10.68;;;;;;;;;;1894716;67;20499;-53
2021/06/08 08:56:02;;;;;;;12.40;11.20;;;;;;;;;;1891280;75;20138;-50
2021/06/08 08:58:29;;;;;;;13.07;11.23;;;;;;;;;;1895533;75;20395;-48
2021/06/08 09:00:57;;;;;;;12.13;10.70;;;;;;;;;;1888420;75;20097;-49
2021/06/08 09:03:24;;;;;;;14.43;11.32;;;;;;;;;;1903239;67;20073;-48
2021/06/08 09:05:49;;;;;;;11.85;10.50;;;;;;;;;;1900033;75;20101;-53
2021/06/08 09:08:16;;;;;;;11.63;10.52;;;;;;;;;;1902467;75;20088;-46
2021/06/08 09:10:42;;;;;;;11.68;10.48;;;;;;;;;;1902723;75;20081;-47
2021/06/08 09:13:08;;;;;;;14.60;11.38;;;;;;;;;;1901042;75;20096;-56
2021/06/08 09:15:35;;;;;;;12.00;10.82;;;;;;;;;;1903414;67;20246;-47
2021/06/08 09:18:00;;;;;;;11.85;10.75;;;;;;;;;;1896667;75;20133;-49
2021/06/08 09:20:26;;;;;;;11.88;10.77;;;;;;;;;;1902745;75;20085;-51
2021/06/08 09:22:51;;;;;;;12.77;11.57;;;;;;;;;;1901751;67;20081;-50
2021/06/08 09:25:37;;;;;;;11.85;10.65;;;;;;;;;;1901487;67;20085;-55
2021/06/08 09:28:23;;;;;;;13.38;11.60;;;;;;;;;;1880090;76;20159;-48
2021/06/08 09:31:03;;;;;;;12.95;11.75;;;;;;;;;;1882732;76;20428;-47
2021/06/08 09:33:34;;;;;;;11.45;10.20;;;;;;;;;;1882167;76;20387;-46
2021/06/08 09:36:05;;;;;;;12.23;11.02;;;;;;;;;;1886510;76;20087;-52
2021/06/08 09:38:38;;;;;;;;;;;;;;;;;;1887888;68;20079;-54
2021/06/08 09:41:21;;;;;;;11.88;10.77;;;;;;;;;;1887832;68;19958;-49
2021/06/08 09:43:53;;;;;;;12.88;11.68;;;;;;;;;;1886361;76;20097;-50
2021/06/08 09:46:19;;;;;;;12.30;11.05;;;;;;;;;;1887359;60;20252;-50
2021/06/08 09:48:55;;;;;;;12.27;10.98;;;;;;;;;;1881186;68;20103;-55
2021/06/08 09:51:21;;;;;;;11.52;10.35;;;;;;;;;;1887168;76;20102;-52
2021/06/08 09:53:46;;;;;;;12.63;11.32;;;;;;;;;;1885606;76;20088;-52
2021/06/08 09:56:13;;;;;;;12.35;10.93;;;;;;;;;;1885218;76;20805;-53
2021/06/08 09:58:44;;;;;;;13.20;11.90;;;;;;;;;;1882790;68;20526;-48
2021/06/08 10:01:27;;;;;;;;;;;;;;;;;;1882897;68;20083;-52
2021/06/08 10:03:52;;;;;;;12.75;11.07;;;;;;;;;;1884808;68;19981;-49
2021/06/08 10:06:23;;;;;;;12.02;10.85;;;;;;;;;;1901259;67;20080;-49
2021/06/08 10:09:04;;;;;;;13.88;12.48;;;;;;;;;;1902416;75;20540;-49
2021/06/08 10:11:30;;;;;;;;;;;;;;;;;;1896720;67;20089;-48
2021/06/08 10:14:07;;;;;;;12.32;10.88;;;;;;;;;;1898669;75;19979;-50
2021/06/08 10:16:32;;;;;;;12.35;11.15;;;;;;;;;;1901411;75;20077;-51
2021/06/08 10:18:59;;;;;;;12.35;11.15;;;;;;;;;;1902145;75;20089;-51
2021/06/08 10:21:38;;;;;;;12.20;10.90;;;;;;;;;;1899314;67;20147;-51
2021/06/08 10:24:11;;;;;;;12.68;11.48;;;;;;;;;;1902122;75;20085;-50
2021/06/08 10:29:59;;;;;;;13.02;11.52;;;;;;;;;;1901768;75;20557;-50
2021/06/08 10:32:24;;;;;;;13.57;12.27;;;;;;;;;;1897433;67;20089;-51
2021/06/08 10:34:49;;;;;;;13.23;11.93;;;;;;;;;;1900286;67;20089;-51
2021/06/08 10:37:17;;;;;;;13.52;11.63;;;;;;;;;;1902452;67;20091;-51
2021/06/08 10:39:42;;;;;;;12.02;10.82;;;;;;;;;;1902000;75;20080;-50
2021/06/08 10:42:08;;;;;;;13.38;12.05;;;;;;;;;;1897903;57;20132;-51
2021/06/08 10:44:35;;;;;;;12.88;11.68;;;;;;;;;;1902807;67;20631;-51
2021/06/08 10:47:20;;;;;;;12.80;11.60;;;;;;;;;;1903026;67;20129;-54
2021/06/08 10:49:45;;;;;;;13.57;11.50;;;;;;;;;;1903098;67;20679;-54
2021/06/08 10:52:15;;;;;;;13.20;11.90;;;;;;;;;;1899778;67;20101;-53
2021/06/08 10:54:48;;;;;;;13.40;12.10;;;;;;;;;;1897144;67;20089;-49
2021/06/08 10:57:14;;;;;;;13.25;11.95;;;;;;;;;;1901921;67;20447;-52
2021/06/08 10:59:42;;;;;;;11.98;10.65;;;;;;;;;;1899721;67;20100;-49
2021/06/08 11:02:07;;;;;;;12.43;11.23;;;;;;;;;;1906726;67;20124;-51
2021/06/08 11:04:51;;;;;;;13.05;11.82;;;;;;;;;;1901970;67;20103;-50
2021/06/08 11:07:42;;;;;;;12.60;11.27;;;;;;;;;;1900997;67;20089;-49
2021/06/08 11:10:26;;;;;;;12.90;11.55;;;;;;;;;;1902176;75;20140;-50
2021/06/08 11:13:09;;;;;;;13.10;11.73;;;;;;;;;;1902136;75;20107;-51
2021/06/08 11:15:36;;;;;;;14.07;11.85;;;;;;;;;;1902777;67;20084;-53
2021/06/08 11:18:19;;;;;;;13.93;11.77;;;;;;;;;;1902229;75;20101;-53
2021/06/08 11:20:45;;;;;;;13.23;11.82;;;;;;;;;;1899058;75;20573;-53
2021/06/08 11:23:29;;;;;;;14.85;11.77;;;;;;;;;;1898948;75;20089;-51
2021/06/08 11:25:55;;;;;;;13.23;11.70;;;;;;;;;;1899587;75;20487;-51
2021/06/08 11:28:20;;;;;;;12.82;11.57;;;;;;;;;;1902595;67;20096;-48
2021/06/08 11:30:56;;;;;;;13.00;11.45;;;;;;;;;;1902469;75;20085;-51
2021/06/08 11:33:35;;;;;;;13.20;11.90;;;;;;;;;;1901939;75;20150;-51
2021/06/08 11:36:22;;;;;;;13.50;11.02;;;;;;;;;;1902415;75;20081;-56
2021/06/08 11:38:51;;;;;;;12.32;11.10;;;;;;;;;;1893583;68;20211;-50
2021/06/08 11:41:18;;;;;;;13.35;12.02;;;;;;;;;;1893158;75;20492;-50
2021/06/08 11:43:45;;;;;;;12.93;11.63;;;;;;;;;;1899071;75;20172;-50
2021/06/08 11:46:13;;;;;;;13.20;11.95;;;;;;;;;;1903696;67;20090;-50
2021/06/08 11:48:39;;;;;;;13.10;11.70;;;;;;;;;;1902732;67;20145;-47
2021/06/08 11:51:23;;;;;;;12.82;11.63;;;;;;;;;;1902084;75;20093;-47
2021/06/08 11:54:11;;;;;;;13.32;12.02;;;;;;;;;;1903592;75;20095;-49
2021/06/08 11:56:48;;;;;;;16.80;12.50;;;;;;;;;;1903121;75;20105;-48
2021/06/08 11:59:22;;;;;;;13.80;12.40;;;;;;;;;;1903297;67;20294;-52
2021/06/08 12:01:49;;;;;;;13.75;12.45;;;;;;;;;;1898668;75;20097;-50
2021/06/08 12:04:15;;;;;;;13.68;12.40;;;;;;;;;;1901481;75;20088;-55
2021/06/08 12:07:09;;;;;;;13.80;12.48;;;;;;;;;;1902249;75;20101;-55
2021/06/08 12:09:43;;;;;;;13.20;11.90;;;;;;;;;;1902565;75;20728;-52
2021/06/08 12:12:10;;;;;;;13.32;12.02;;;;;;;;;;1904227;67;20147;-49
2021/06/08 12:14:36;;;;;;;12.45;11.18;;;;;;;;;;1901990;75;20096;-51
2021/06/08 12:17:02;;;;;;;12.32;11.13;;;;;;;;;;1896866;75;20089;-51
2021/06/08 12:19:33;;;;;;;12.57;11.48;;;;;;;;;;1898253;75;20083;-50
2021/06/08 12:22:17;;;;;;;13.13;11.05;;;;;;;;;;1902745;67;20135;-51
2021/06/08 12:24:59;;;;;;;12.88;11.30;;;;;;;;;;1904486;75;20080;-52
2021/06/08 12:27:40;;;;;;;12.70;11.40;;;;;;;;;;1899524;75;20085;-49
2021/06/08 12:30:07;;;;;;;15.45;12.90;;;;;;;;;;1899188;67;20093;-55
2021/06/08 12:32:33;;;;;;;14.10;12.68;;;;;;;;;;1902133;67;20085;-54
2021/06/08 12:34:58;;;;;;;13.65;12.35;;;;;;;;;;1904584;75;20144;-49
2021/06/08 12:37:24;;;;;;;12.68;11.38;;;;;;;;;;1902712;67;20099;-57
2021/06/08 12:39:51;;;;;;;12.82;11.43;;;;;;;;;;1900632;67;20092;-53
2021/06/08 12:42:19;;;;;;;13.40;12.00;;;;;;;;;;1903208;67;20095;-49
2021/06/08 12:44:46;;;;;;;13.73;12.32;;;;;;;;;;1903261;67;20143;-53
2021/06/08 12:47:12;;;;;;;13.32;11.88;;;;;;;;;;1899273;75;20423;-54
2021/06/08 12:49:38;;;;;;;13.98;12.55;;;;;;;;;;1900203;75;20084;-48
2021/06/08 12:52:04;;;;;;;12.50;11.20;;;;;;;;;;1902023;67;20081;-55
2021/06/08 12:54:33;;;;;;;13.02;11.82;;;;;;;;;;1902251;67;20092;-54
2021/06/08 12:56:59;;;;;;;13.63;12.20;;;;;;;;;;1902331;75;20148;-50
2021/06/08 12:59:50;;;;;;;14.35;11.73;;;;;;;;;;1902108;75;20096;-52
2021/06/08 13:02:15;;;;;;;;;;;;;;;;;;1901253;75;20368;-52
2021/06/08 13:04:42;;;;;;;13.15;11.75;;;;;;;;;;1902709;75;20010;-50
2021/06/08 13:07:09;;;;;;;13.18;11.77;;;;;;;;;;1903164;67;20089;-52
2021/06/08 13:09:34;;;;;;;12.80;11.48;;;;;;;;;;1902859;75;20117;-49
2021/06/08 13:12:07;;;;;;;12.88;11.57;;;;;;;;;;1899647;75;20099;-51
2021/06/08 13:14:33;;;;;;;13.20;11.82;;;;;;;;;;1902898;75;20085;-50
2021/06/08 13:16:58;;;;;;;14.63;12.48;;;;;;;;;;1899267;67;20088;-52
2021/06/08 13:19:31;;;;;;;13.68;12.45;;;;;;;;;;1901235;75;20531;-49
2021/06/08 13:21:57;;;;;;;12.77;11.05;;;;;;;;;;1902794;75;20092;-51
2021/06/08 13:24:23;;;;;;;13.07;11.40;;;;;;;;;;1899021;75;20081;-52
2021/06/08 13:26:49;;;;;;;12.90;11.70;;;;;;;;;;1902387;75;20494;-52
2021/06/08 13:29:24;;;;;;;13.18;10.48;;;;;;;;;;1903509;67;20091;-52
2021/06/08 13:31:54;;;;;;;12.95;11.43;;;;;;;;;;1902748;75;20095;-52
2021/06/08 13:34:30;;;;;;;11.73;10.63;;;;;;;;;;1899880;75;20077;-51
2021/06/08 13:37:06;;;;;;;13.23;11.93;;;;;;;;;;1902413;67;20087;-50
2021/06/08 13:39:38;;;;;;;12.55;11.35;;;;;;;;;;1901325;67;20097;-54
2021/06/08 13:42:19;;;;;;;12.82;11.10;;;;;;;;;;1902337;67;20769;-50
2021/06/08 13:45:01;;;;;;;12.57;11.27;;;;;;;;;;1903222;67;20126;-50
2021/06/08 13:47:34;;;;;;;12.15;10.73;;;;;;;;;;1899059;75;20133;-52
2021/06/08 13:50:00;;;;;;;12.32;11.13;;;;;;;;;;1902028;67;20089;-51
2021/06/08 13:53:01;;;;;;;11.80;10.68;;;;;;;;;;1902737;75;20137;-50
2021/06/08 13:55:31;;;;;;;12.63;11.43;;;;;;;;;;1890152;76;20666;-50
2021/06/08 14:01:15;;;;;;;11.93;10.80;;;;;;;;;;1901577;67;20453;-52
2021/06/08 14:03:41;;;;;;;11.65;10.50;;;;;;;;;;1904406;67;20085;-51
2021/06/08 14:06:14;;;;;;;12.65;11.40;;;;;;;;;;1902957;75;20085;-54
2021/06/08 14:08:40;;;;;;;11.50;10.40;;;;;;;;;;1902476;75;20129;-52
2021/06/08 14:11:05;;;;;;;11.70;10.55;;;;;;;;;;1903608;67;20081;-53
2021/06/08 14:13:38;;;;;;;11.57;10.55;;;;;;;;;;1902405;68;20390;-52
2021/06/08 14:16:05;;;;;;;12.10;11.00;;;;;;;;;;1902568;75;20396;-50
2021/06/08 14:18:31;;;;;;;11.40;10.30;;;;;;;;;;1901899;75;20085;-53
2021/06/08 14:20:56;;;;;;;11.43;10.38;;;;;;;;;;1902968;75;20092;-54
2021/06/08 14:23:22;;;;;;;10.77;9.77;;;;;;;;;;1902669;67;20089;-54
2021/06/08 14:25:47;;;;;;;12.00;10.90;;;;;;;;;;1902926;75;20085;-54
2021/06/08 14:28:13;;;;;;;11.20;10.20;;;;;;;;;;1902224;75;20133;-52
2021/06/08 14:30:38;;;;;;;11.93;10.32;;;;;;;;;;1902520;75;20096;-52
2021/06/08 14:33:04;;;;;;;10.45;9.55;;;;;;;;;;1901954;75;20147;-50
2021/06/08 14:35:29;;;;;;;11.73;10.43;;;;;;;;;;1905375;67;20552;-53
2021/06/08 14:37:54;;;;;;;10.80;9.80;;;;;;;;;;1905195;75;20160;-52
2021/06/08 14:40:20;;;;;;;11.23;10.07;;;;;;;;;;1905757;67;20095;-49
2021/06/08 14:42:46;;;;;;;10.63;9.63;;;;;;;;;;1902204;75;20452;-52
2021/06/08 14:45:11;;;;;;;10.43;9.43;;;;;;;;;;1898601;67;20101;-49
2021/06/08 14:47:37;;;;;;;10.93;9.85;;;;;;;;;;1901974;75;20564;-55